Time;durP1;ratioP1;P1;durP2;ratioP2;P2;SDS_P1;SDS_P2;PMS_P1;PMS_P2;Temp;Humidity;BMP_temperature;BMP_pressure;BME280_temperature;BME280_humidity;BME280_pressure;Samples;Min_cycle;Max_cycle;Signal;HPM_P1;HPM_P2
2022/01/29 00:00:47;;;;;;;;;;;7.50;99.90;;;;;;5110197;28;20007;-79
2022/01/29 00:03:12;;;;;;;;;;;7.50;99.90;;;;;;5100781;28;20000;-79
2022/01/29 00:05:38;;;;;;;;;;;7.50;99.90;;;;;;5050120;28;20292;-78
2022/01/29 00:08:03;;;;;;;;;;;7.50;99.90;;;;;;5100162;28;19924;-79
2022/01/29 00:10:31;;;;;;;;;;;7.50;99.90;;;;;;5046435;28;19925;-79
2022/01/29 00:12:56;;;;;;;;;;;7.40;99.90;;;;;;5103339;28;19924;-79
2022/01/29 00:15:22;;;;;;;;;;;7.50;99.90;;;;;;5093215;28;19924;-78
2022/01/29 00:17:47;;;;;;;;;;;7.50;99.90;;;;;;5064878;28;19928;-79
2022/01/29 00:20:13;;;;;;;;;;;7.40;99.90;;;;;;5104317;28;19974;-79
2022/01/29 00:22:39;;;;;;;;;;;7.50;99.90;;;;;;5075528;28;20388;-81
2022/01/29 00:25:05;;;;;;;;;;;7.50;99.90;;;;;;5092916;28;19988;-79
2022/01/29 00:27:34;;;;;;;;;;;7.50;99.90;;;;;;5070412;28;19925;-79
2022/01/29 00:30:04;;;;;;;;;;;7.50;99.90;;;;;;5072274;28;20408;-79
2022/01/29 00:32:30;;;;;;;;;;;7.50;99.90;;;;;;5055523;28;20061;-82
2022/01/29 00:34:55;;;;;;;;;;;7.50;99.90;;;;;;5089561;28;20011;-79
2022/01/29 00:37:21;;;;;;;;;;;7.50;99.90;;;;;;5091609;28;19931;-79
2022/01/29 00:39:46;;;;;;;;;;;7.50;99.90;;;;;;5074871;28;19931;-79
2022/01/29 00:42:13;;;;;;;;;;;7.50;99.90;;;;;;5075803;28;19931;-79
2022/01/29 00:44:39;;;;;;;;;;;7.50;99.90;;;;;;5075481;28;19932;-79
2022/01/29 00:47:04;;;;;;;;;;;7.60;99.90;;;;;;5057897;28;20006;-79
2022/01/29 00:49:30;;;;;;;;;;;7.60;99.90;;;;;;5075642;28;19924;-81
2022/01/29 00:51:56;;;;;;;;;;;7.60;99.90;;;;;;5089169;28;19928;-78
2022/01/29 00:54:21;;;;;;;;;;;7.60;99.90;;;;;;5076995;28;19924;-79
2022/01/29 00:56:47;;;;;;;;;;;7.60;99.90;;;;;;5088597;28;19967;-79
2022/01/29 00:59:12;;;;;;;;;;;7.60;99.90;;;;;;5023869;28;19963;-79
2022/01/29 01:01:38;;;;;;;;;;;7.60;99.90;;;;;;5081669;28;19979;-80
2022/01/29 01:04:04;;;;;;;;;;;7.60;99.90;;;;;;5087595;28;19932;-82
2022/01/29 01:06:29;;;;;;;;;;;7.60;99.90;;;;;;5039911;28;19930;-81
2022/01/29 01:08:55;;;;;;;;;;;7.60;99.90;;;;;;5057112;28;19971;-81
2022/01/29 01:11:20;;;;;;;;;;;7.70;99.90;;;;;;5091508;28;19931;-80
2022/01/29 01:13:46;;;;;;;;;;;7.60;99.90;;;;;;5055331;28;19925;-80
2022/01/29 01:16:11;;;;;;;;;;;7.70;99.90;;;;;;5074106;28;19924;-79
2022/01/29 01:18:37;;;;;;;;;;;7.70;99.90;;;;;;5059023;28;19973;-80
2022/01/29 01:21:02;;;;;;;;;;;7.70;99.90;;;;;;5060662;28;20384;-82
2022/01/29 01:23:28;;;;;;;;;;;7.70;99.90;;;;;;5105651;28;20389;-81
2022/01/29 01:25:54;;;;;;;;;;;7.70;99.90;;;;;;5101490;28;19928;-82
2022/01/29 01:28:19;;;;;;;;;;;7.80;99.90;;;;;;5053748;28;19931;-81
2022/01/29 01:30:45;;;;;;;;;;;7.80;99.90;;;;;;5050370;28;20274;-77
2022/01/29 01:33:10;;;;;;;;;;;7.80;99.90;;;;;;5075179;28;19931;-78
2022/01/29 01:35:42;;;;;;;;;;;7.80;99.90;;;;;;5057811;28;19924;-79
2022/01/29 01:38:17;;;;;;;;;;;7.80;99.90;;;;;;5074279;28;19934;-79
2022/01/29 01:40:47;;;;;;;;;;;7.90;99.90;;;;;;5058280;28;19963;-79
2022/01/29 01:43:13;;;;;;;;;;;7.80;99.90;;;;;;5058198;28;20272;-79
2022/01/29 01:45:38;;;;;;;;;;;7.80;99.90;;;;;;5075123;28;20014;-81
2022/01/29 01:48:06;;;;;;;;;;;7.80;99.90;;;;;;5076458;28;19932;-77
2022/01/29 01:50:33;;;;;;;;;;;7.80;99.90;;;;;;5061918;28;19990;-78
2022/01/29 01:52:58;;;;;;;;;;;7.80;99.90;;;;;;5078697;28;19928;-80
2022/01/29 01:55:24;;;;;;;;;;;7.80;99.90;;;;;;5062059;28;20327;-79
2022/01/29 01:57:50;;;;;;;;;;;7.80;99.90;;;;;;5056575;28;19924;-78
2022/01/29 02:00:16;;;;;;;;;;;7.80;99.90;;;;;;5071934;28;19932;-79
2022/01/29 02:02:42;;;;;;;;;;;7.80;99.90;;;;;;5056507;28;19932;-79
2022/01/29 02:05:09;;;;;;;;;;;7.80;99.90;;;;;;5089806;28;19925;-79
2022/01/29 02:07:35;;;;;;;;;;;7.80;99.90;;;;;;5049135;28;19924;-80
2022/01/29 02:10:02;;;;;;;;;;;7.80;99.90;;;;;;5040388;28;19974;-80
2022/01/29 02:12:31;;;;;;;;;;;7.80;99.90;;;;;;5073304;28;19928;-80
2022/01/29 02:15:01;;;;;;;;;;;7.80;99.90;;;;;;5071548;28;19925;-79
2022/01/29 02:17:27;;;;;;;;;;;7.80;99.90;;;;;;5082445;28;19925;-80
2022/01/29 02:19:52;;;;;;;;;;;7.80;99.90;;;;;;5071661;28;19963;-81
2022/01/29 02:22:18;;;;;;;;;;;7.80;99.90;;;;;;5074546;28;19929;-80
2022/01/29 02:24:43;;;;;;;;;;;7.80;99.90;;;;;;5074608;28;19928;-81
2022/01/29 02:27:09;;;;;;;;;;;7.80;99.90;;;;;;5074668;28;19934;-80
2022/01/29 02:29:35;;;;;;;;;;;7.80;99.90;;;;;;5064372;28;19995;-79
2022/01/29 02:32:01;;;;;;;;;;;7.80;99.90;;;;;;5081203;28;19975;-80
2022/01/29 02:34:29;;;;;;;;;;;7.80;99.90;;;;;;5074591;28;19974;-79
2022/01/29 02:36:55;;;;;;;;;;;7.80;99.90;;;;;;5057766;28;19924;-79
2022/01/29 02:39:21;;;;;;;;;;;7.80;99.90;;;;;;5057726;28;19931;-80
2022/01/29 02:41:47;;;;;;;;;;;7.80;99.90;;;;;;5074021;28;19925;-80
2022/01/29 02:44:16;;;;;;;;;;;7.80;99.90;;;;;;5074574;28;20019;-84
2022/01/29 02:49:08;;;;;;;;;;;7.80;99.90;;;;;;5074102;28;19929;-79
2022/01/29 02:51:33;;;;;;;;;;;7.90;99.90;;;;;;5073858;28;19924;-79
2022/01/29 02:53:59;;;;;;;;;;;7.90;99.90;;;;;;5040490;28;20018;-81
2022/01/29 02:56:25;;;;;;;;;;;7.90;99.90;;;;;;5073555;28;20307;-79
2022/01/29 02:58:51;;;;;;;;;;;7.90;99.90;;;;;;5040030;28;20386;-79
2022/01/29 03:01:18;;;;;;;;;;;7.90;99.90;;;;;;5057007;28;20330;-80
2022/01/29 03:03:43;;;;;;;;;;;7.90;99.90;;;;;;5108068;28;19928;-82
2022/01/29 03:06:10;;;;;;;;;;;7.90;99.90;;;;;;5074288;28;20019;-78
2022/01/29 03:08:37;;;;;;;;;;;7.90;99.90;;;;;;5073706;28;19931;-78
2022/01/29 03:11:02;;;;;;;;;;;8.00;99.90;;;;;;5073722;28;19971;-78
2022/01/29 03:13:28;;;;;;;;;;;8.00;99.90;;;;;;5056923;28;20026;-79
2022/01/29 03:15:53;;;;;;;;;;;8.00;99.90;;;;;;5073597;28;20395;-79
2022/01/29 03:18:19;;;;;;;;;;;8.00;99.90;;;;;;5056952;28;19924;-80
2022/01/29 03:20:44;;;;;;;;;;;8.00;99.90;;;;;;5073641;28;19975;-78
2022/01/29 03:23:10;;;;;;;;;;;8.00;99.90;;;;;;5064127;28;19924;-78
2022/01/29 03:25:36;;;;;;;;;;;8.00;99.90;;;;;;5052159;28;19974;-79
2022/01/29 03:28:01;;;;;;;;;;;8.00;99.90;;;;;;5046773;28;20011;-78
2022/01/29 03:30:27;;;;;;;;;;;8.00;99.90;;;;;;5073080;28;20597;-77
2022/01/29 03:32:53;;;;;;;;;;;8.00;99.90;;;;;;5066471;28;19928;-77
2022/01/29 03:35:19;;;;;;;;;;;8.00;99.90;;;;;;5054460;28;19929;-78
2022/01/29 03:37:44;;;;;;;;;;;8.00;99.90;;;;;;5086619;28;20374;-77
2022/01/29 03:40:10;;;;;;;;;;;7.90;99.90;;;;;;5096706;28;19974;-77
2022/01/29 03:42:43;;;;;;;;;;;8.00;99.90;;;;;;5056035;28;20428;-78
2022/01/29 03:45:09;;;;;;;;;;;8.00;99.90;;;;;;5056833;28;19977;-78
2022/01/29 03:47:35;;;;;;;;;;;8.00;99.90;;;;;;5068581;28;19925;-78
2022/01/29 03:50:00;;;;;;;;;;;8.00;99.90;;;;;;5089743;28;20346;-78
2022/01/29 03:52:26;;;;;;;;;;;8.00;99.90;;;;;;5072751;28;19932;-77
2022/01/29 03:54:52;;;;;;;;;;;8.00;99.90;;;;;;5056021;28;19931;-81
2022/01/29 03:57:17;;;;;;;;;;;8.10;99.90;;;;;;5072080;28;19968;-79
2022/01/29 03:59:43;;;;;;;;;;;8.00;99.90;;;;;;5106745;28;19935;-80
2022/01/29 04:02:08;;;;;;;;;;;8.10;99.90;;;;;;5055912;28;20011;-81
2022/01/29 04:04:34;;;;;;;;;;;8.10;99.90;;;;;;5056118;28;19932;-77
2022/01/29 04:07:05;;;;;;;;;;;8.00;99.90;;;;;;5072807;28;20320;-78
2022/01/29 04:09:31;;;;;;;;;;;8.10;99.90;;;;;;5106684;28;19983;-77
2022/01/29 04:11:57;;;;;;;;;;;8.10;99.90;;;;;;5048044;28;19982;-77
2022/01/29 04:14:22;;;;;;;;;;;8.10;99.90;;;;;;5072860;28;19925;-77
2022/01/29 04:16:48;;;;;;;;;;;8.10;99.90;;;;;;5090261;28;20372;-85
2022/01/29 04:19:13;;;;;;;;;;;8.10;99.90;;;;;;5054147;28;19928;-77
2022/01/29 04:21:41;;;;;;;;;;;8.20;99.90;;;;;;5071327;28;20280;-80
2022/01/29 04:24:06;;;;;;;;;;;8.20;99.90;;;;;;5072385;28;19924;-78
2022/01/29 04:26:34;;;;;;;;;;;8.30;99.90;;;;;;5073061;28;20412;-78
2022/01/29 04:29:02;;;;;;;;;;;8.20;99.90;;;;;;5038723;28;19985;-77
2022/01/29 04:31:36;;;;;;;;;;;8.20;99.90;;;;;;5071870;28;20347;-80
2022/01/29 04:34:02;;;;;;;;;;;8.20;99.90;;;;;;5102831;28;19924;-80
2022/01/29 04:36:27;;;;;;;;;;;8.30;99.90;;;;;;5085648;28;19981;-80
2022/01/29 04:38:53;;;;;;;;;;;8.20;99.90;;;;;;5068940;28;20365;-79
2022/01/29 04:41:21;;;;;;;;;;;8.20;99.90;;;;;;5068750;28;19982;-82
2022/01/29 04:43:47;;;;;;;;;;;8.20;99.90;;;;;;5068328;28;19925;-79
2022/01/29 04:46:12;;;;;;;;;;;8.20;99.90;;;;;;5068716;28;19924;-80
2022/01/29 04:48:38;;;;;;;;;;;8.20;99.90;;;;;;5070292;28;19935;-80
2022/01/29 04:51:03;;;;;;;;;;;8.20;99.90;;;;;;5071525;28;19931;-81
2022/01/29 04:53:29;;;;;;;;;;;8.20;99.90;;;;;;5071805;28;19931;-84
2022/01/29 04:55:55;;;;;;;;;;;8.20;99.90;;;;;;5072251;28;19924;-80
2022/01/29 04:58:20;;;;;;;;;;;8.20;99.90;;;;;;5038260;28;19968;-78
2022/01/29 05:00:46;;;;;;;;;;;8.20;99.90;;;;;;5038712;28;19924;-78
2022/01/29 05:03:12;;;;;;;;;;;8.30;99.90;;;;;;5072335;28;20348;-80
2022/01/29 05:05:38;;;;;;;;;;;8.30;99.90;;;;;;5055557;28;19924;-78
2022/01/29 05:08:04;;;;;;;;;;;8.30;99.90;;;;;;5055316;28;20281;-79
2022/01/29 05:10:30;;;;;;;;;;;8.30;99.90;;;;;;5022572;28;19925;-79
2022/01/29 05:13:07;;;;;;;;;;;8.30;99.90;;;;;;5039351;28;19928;-80
2022/01/29 05:15:40;;;;;;;;;;;8.30;99.90;;;;;;5093437;28;20441;-79
2022/01/29 05:29:03;;;;;;;;;;;8.40;99.90;;;;;;5060231;28;19947;-79
2022/01/29 05:31:29;;;;;;;;;;;8.40;99.90;;;;;;5074747;28;19928;-80
2022/01/29 05:33:54;;;;;;;;;;;8.40;99.90;;;;;;5073435;28;19924;-80
2022/01/29 05:36:20;;;;;;;;;;;8.40;99.90;;;;;;5075643;28;20442;-77
2022/01/29 05:38:46;;;;;;;;;;;8.40;99.90;;;;;;5076052;28;19931;-78
2022/01/29 05:41:11;;;;;;;;;;;8.50;99.90;;;;;;5059111;28;20391;-77
2022/01/29 05:43:37;;;;;;;;;;;8.50;99.90;;;;;;5061393;28;19986;-79
2022/01/29 05:46:03;;;;;;;;;;;8.50;99.90;;;;;;5030295;28;20281;-78
2022/01/29 05:48:28;;;;;;;;;;;8.50;99.90;;;;;;5088918;28;19929;-79
2022/01/29 05:50:55;;;;;;;;;;;8.50;99.90;;;;;;5051118;28;19924;-79
2022/01/29 05:53:21;;;;;;;;;;;8.50;99.90;;;;;;5047142;28;19925;-79
2022/01/29 05:55:46;;;;;;;;;;;8.50;99.90;;;;;;5089030;28;19974;-77
2022/01/29 05:58:12;;;;;;;;;;;8.50;99.90;;;;;;5071409;28;19934;-78
2022/01/29 06:00:38;;;;;;;;;;;8.50;99.90;;;;;;5088634;28;20034;-78
2022/01/29 06:03:07;;;;;;;;;;;8.50;99.90;;;;;;5071319;28;20270;-81
2022/01/29 06:05:33;;;;;;;;;;;8.50;99.90;;;;;;5071578;28;20397;-78
2022/01/29 06:07:58;;;;;;;;;;;8.50;99.90;;;;;;5088834;28;19955;-77
2022/01/29 06:10:24;;;;;;;;;;;8.40;99.90;;;;;;5066968;28;19928;-78
2022/01/29 06:13:08;;;;;;;;;;;8.50;99.90;;;;;;5058451;28;19925;-78
2022/01/29 06:15:37;;;;;;;;;;;8.50;99.90;;;;;;5076411;28;19924;-79
2022/01/29 06:18:03;;;;;;;;;;;8.50;99.90;;;;;;5074758;28;19924;-78
2022/01/29 06:20:29;;;;;;;;;;;8.40;99.90;;;;;;5074924;28;19928;-77
2022/01/29 06:22:54;;;;;;;;;;;8.50;99.90;;;;;;5068680;28;19924;-77
2022/01/29 06:25:20;;;;;;;;;;;8.40;99.90;;;;;;5090285;28;19925;-77
2022/01/29 06:27:46;;;;;;;;;;;8.40;99.90;;;;;;5056649;28;20023;-77
2022/01/29 06:30:11;;;;;;;;;;;8.40;99.90;;;;;;5061834;28;19925;-76
2022/01/29 06:32:37;;;;;;;;;;;8.40;99.90;;;;;;5058339;28;19928;-79
2022/01/29 06:35:03;;;;;;;;;;;8.40;99.90;;;;;;5057834;28;19929;-78
2022/01/29 06:37:29;;;;;;;;;;;8.40;99.90;;;;;;5057472;28;19929;-83
2022/01/29 06:39:54;;;;;;;;;;;8.50;99.90;;;;;;5039098;28;19925;-78
2022/01/29 06:42:20;;;;;;;;;;;8.50;99.90;;;;;;5057916;28;19992;-78
2022/01/29 06:44:45;;;;;;;;;;;8.50;99.90;;;;;;5057313;28;20418;-79
2022/01/29 06:47:11;;;;;;;;;;;8.50;99.90;;;;;;5074185;28;19924;-78
2022/01/29 06:49:36;;;;;;;;;;;8.50;99.90;;;;;;5040923;28;20066;-78
2022/01/29 06:52:02;;;;;;;;;;;8.50;99.90;;;;;;5108660;28;20361;-77
2022/01/29 06:54:28;;;;;;;;;;;8.50;99.90;;;;;;5108642;28;19935;-78
2022/01/29 06:56:53;;;;;;;;;;;8.50;99.90;;;;;;5074010;28;19929;-78
2022/01/29 06:59:19;;;;;;;;;;;8.50;99.90;;;;;;5091098;28;19924;-78
2022/01/29 07:01:44;;;;;;;;;;;8.50;99.90;;;;;;5090969;28;19931;-78
2022/01/29 07:04:10;;;;;;;;;;;8.50;99.90;;;;;;5074168;28;19973;-78
2022/01/29 07:06:36;;;;;;;;;;;8.50;99.90;;;;;;5073977;28;20015;-78
2022/01/29 07:09:02;;;;;;;;;;;8.50;99.90;;;;;;5072545;28;19925;-78
2022/01/29 07:11:28;;;;;;;;;;;8.50;99.90;;;;;;5053847;28;19929;-80
2022/01/29 07:14:02;;;;;;;;;;;8.50;99.90;;;;;;5071434;28;19994;-79
2022/01/29 07:16:28;;;;;;;;;;;8.50;99.90;;;;;;5073901;28;19928;-79
2022/01/29 07:18:53;;;;;;;;;;;8.50;99.90;;;;;;5072290;28;20039;-80
2022/01/29 07:21:19;;;;;;;;;;;8.50;99.90;;;;;;5080596;28;20007;-80
2022/01/29 07:23:45;;;;;;;;;;;8.50;99.90;;;;;;5051605;28;20011;-81
2022/01/29 07:26:10;;;;;;;;;;;8.60;99.90;;;;;;5106169;28;20016;-80
2022/01/29 07:28:36;;;;;;;;;;;8.50;99.90;;;;;;5072857;28;19924;-80
2022/01/29 07:31:02;;;;;;;;;;;8.50;99.90;;;;;;5045778;28;20457;-79
2022/01/29 07:33:28;;;;;;;;;;;8.50;99.90;;;;;;5069881;28;19935;-80
2022/01/29 07:35:54;;;;;;;;;;;8.60;99.90;;;;;;5070224;28;20451;-78
2022/01/29 07:38:20;;;;;;;;;;;8.60;99.90;;;;;;5052884;28;19924;-78
2022/01/29 07:40:46;;;;;;;;;;;8.60;99.90;;;;;;5086363;28;20464;-81
2022/01/29 07:43:11;;;;;;;;;;;8.60;99.90;;;;;;5036359;28;20285;-81
2022/01/29 07:45:37;;;;;;;;;;;8.60;99.90;;;;;;5039453;28;19932;-80
2022/01/29 07:48:02;;;;;;;;;;;8.60;99.90;;;;;;5073015;28;19924;-79
2022/01/29 07:50:28;;;;;;;;;;;8.60;99.90;;;;;;5090487;28;20011;-78
2022/01/29 07:52:54;;;;;;;;;;;8.60;99.90;;;;;;5039493;28;20388;-78
2022/01/29 07:55:20;;;;;;;;;;;8.50;99.90;;;;;;5072594;28;19924;-79
2022/01/29 07:57:46;;;;;;;;;;;8.50;99.90;;;;;;5072077;28;19925;-80
2022/01/29 08:00:12;;;;;;;;;;;8.50;99.90;;;;;;5073043;28;19978;-78
2022/01/29 08:02:37;;;;;;;;;;;8.50;99.90;;;;;;5055406;28;19925;-77
2022/01/29 08:05:03;;;;;;;;;;;8.50;99.90;;;;;;5072036;28;19979;-78
2022/01/29 08:07:29;;;;;;;;;;;8.40;99.90;;;;;;5084193;28;19934;-80
2022/01/29 08:09:54;;;;;;;;;;;8.40;99.90;;;;;;5037975;28;20022;-79
2022/01/29 08:12:20;;;;;;;;;;;8.50;99.90;;;;;;5071888;28;19931;-79
2022/01/29 08:14:45;;;;;;;;;;;8.50;99.90;;;;;;5070799;28;20035;-84
2022/01/29 08:17:11;;;;;;;;;;;8.60;99.90;;;;;;5037740;28;19928;-79
2022/01/29 08:19:37;;;;;;;;;;;8.60;99.90;;;;;;5071899;28;20011;-77
2022/01/29 08:22:02;;;;;;;;;;;8.60;99.90;;;;;;5072516;28;19956;-81
2022/01/29 08:24:28;;;;;;;;;;;8.60;99.90;;;;;;5085867;28;19951;-80
2022/01/29 08:26:54;;;;;;;;;;;8.70;99.90;;;;;;5035685;28;19925;-80
2022/01/29 08:29:19;;;;;;;;;;;8.70;99.90;;;;;;5033364;28;20380;-79
2022/01/29 08:31:45;;;;;;;;;;;8.70;99.90;;;;;;5072325;28;19925;-79
2022/01/29 08:34:10;;;;;;;;;;;8.70;99.90;;;;;;5038694;28;19932;-81
2022/01/29 08:36:36;;;;;;;;;;;8.70;99.90;;;;;;5055591;28;19950;-82
2022/01/29 08:39:02;;;;;;;;;;;8.70;99.90;;;;;;5055365;28;19928;-81
2022/01/29 08:41:27;;;;;;;;;;;8.80;99.90;;;;;;5089220;28;20312;-81
2022/01/29 08:43:53;;;;;;;;;;;8.70;99.90;;;;;;5055649;28;19932;-79
2022/01/29 08:46:19;;;;;;;;;;;8.80;99.90;;;;;;5055376;28;19929;-78
2022/01/29 08:48:44;;;;;;;;;;;8.80;99.90;;;;;;5056085;28;19978;-78
2022/01/29 08:51:10;;;;;;;;;;;8.80;99.90;;;;;;5055714;28;19964;-78
2022/01/29 08:53:35;;;;;;;;;;;8.80;99.90;;;;;;5072981;28;19931;-78
2022/01/29 08:56:01;;;;;;;;;;;8.80;99.90;;;;;;5056486;28;19967;-78
2022/01/29 08:58:27;;;;;;;;;;;8.80;99.90;;;;;;5074090;28;19933;-81
2022/01/29 09:00:52;;;;;;;;;;;8.80;99.90;;;;;;5042677;28;19999;-78
2022/01/29 09:03:18;;;;;;;;;;;8.90;99.90;;;;;;5050085;28;19929;-78
2022/01/29 09:05:44;;;;;;;;;;;8.90;99.90;;;;;;5103728;28;19967;-79
2022/01/29 09:08:10;;;;;;;;;;;8.90;99.90;;;;;;5059275;28;20429;-79
2022/01/29 09:10:37;;;;;;;;;;;8.90;99.90;;;;;;5068172;28;19925;-81
2022/01/29 09:13:02;;;;;;;;;;;9.00;99.90;;;;;;5042563;28;20062;-78
2022/01/29 09:15:28;;;;;;;;;;;9.00;99.90;;;;;;5058992;28;20019;-82
2022/01/29 09:17:53;;;;;;;;;;;9.10;99.90;;;;;;5042034;28;19931;-79
2022/01/29 09:20:19;;;;;;;;;;;9.10;99.90;;;;;;5075553;28;19935;-80
2022/01/29 09:22:45;;;;;;;;;;;9.00;99.90;;;;;;5058247;28;19977;-79
2022/01/29 09:25:11;;;;;;;;;;;9.10;99.90;;;;;;5070310;28;19983;-82
2022/01/29 09:27:36;;;;;;;;;;;9.10;99.90;;;;;;5070680;28;19931;-79
2022/01/29 09:30:03;;;;;;;;;;;9.10;99.90;;;;;;5054246;28;20332;-80
2022/01/29 09:32:29;;;;;;;;;;;9.10;99.90;;;;;;5070673;28;20027;-80
2022/01/29 09:34:54;;;;;;;;;;;9.10;99.90;;;;;;5108184;28;19963;-80
2022/01/29 09:37:20;;;;;;;;;;;9.10;99.90;;;;;;5093358;28;20305;-79
2022/01/29 09:39:46;;;;;;;;;;;9.10;99.90;;;;;;5074643;28;19925;-81
2022/01/29 09:42:12;;;;;;;;;;;9.10;99.90;;;;;;5074766;28;19924;-80
2022/01/29 09:44:37;;;;;;;;;;;9.20;99.90;;;;;;5083284;28;19925;-79
2022/01/29 09:47:04;;;;;;;;;;;9.20;99.90;;;;;;5066196;28;19935;-81
2022/01/29 09:49:32;;;;;;;;;;;9.20;99.90;;;;;;5074798;28;19925;-81
2022/01/29 09:51:57;;;;;;;;;;;9.20;99.90;;;;;;5055170;28;19974;-81
2022/01/29 09:54:23;;;;;;;;;;;9.30;99.90;;;;;;5083498;28;19932;-80
2022/01/29 09:56:48;;;;;;;;;;;9.30;99.90;;;;;;5057068;28;19959;-81
2022/01/29 09:59:14;;;;;;;;;;;9.30;99.90;;;;;;5074344;28;20357;-83
2022/01/29 10:01:40;;;;;;;;;;;9.30;99.90;;;;;;5083688;28;19925;-83
2022/01/29 10:04:05;;;;;;;;;;;9.40;99.90;;;;;;5074331;28;19925;-83
2022/01/29 10:06:32;;;;;;;;;;;9.40;99.90;;;;;;5086218;28;19931;-80
2022/01/29 10:08:59;;;;;;;;;;;9.40;99.90;;;;;;5081910;28;19959;-82
2022/01/29 10:11:26;;;;;;;;;;;9.40;99.90;;;;;;5069192;28;19941;-83
2022/01/29 10:13:57;;;;;;;;;;;9.40;99.90;;;;;;5082234;28;20015;-79
2022/01/29 10:16:25;;;;;;;;;;;9.50;99.90;;;;;;5072777;28;19931;-81
2022/01/29 10:18:56;;;;;;;;;;;9.50;99.90;;;;;;5071963;28;19974;-79
2022/01/29 10:21:23;;;;;;;;;;;9.50;99.90;;;;;;5054294;28;19924;-78
2022/01/29 10:24:02;;;;;;;;;;;9.50;99.90;;;;;;5073879;28;19924;-81
2022/01/29 10:26:27;;;;;;;;;;;9.50;99.90;;;;;;5073387;28;19938;-82
2022/01/29 10:28:54;;;;;;;;;;;9.50;99.90;;;;;;5057145;28;19924;-78
2022/01/29 10:31:19;;;;;;;;;;;9.60;99.90;;;;;;5057333;28;19924;-79
2022/01/29 10:33:45;;;;;;;;;;;9.60;99.90;;;;;;5074278;28;20277;-78
2022/01/29 10:36:14;;;;;;;;;;;9.60;99.90;;;;;;5072492;28;19925;-80
2022/01/29 10:38:40;;;;;;;;;;;9.60;99.90;;;;;;5073517;28;20316;-81
2022/01/29 10:41:08;;;;;;;;;;;9.50;99.90;;;;;;5073606;28;19931;-81
2022/01/29 10:43:34;;;;;;;;;;;9.50;99.90;;;;;;5054102;28;19928;-81
2022/01/29 10:46:00;;;;;;;;;;;9.50;99.90;;;;;;5073753;28;20388;-85
2022/01/29 10:48:43;;;;;;;;;;;9.50;99.90;;;;;;5085218;28;19932;-82
2022/01/29 10:51:10;;;;;;;;;;;9.50;99.90;;;;;;5072143;28;19937;-83
2022/01/29 10:53:36;;;;;;;;;;;9.50;99.90;;;;;;5057009;28;20046;-78
2022/01/29 10:56:03;;;;;;;;;;;9.50;99.90;;;;;;5057381;28;20018;-79
2022/01/29 10:58:29;;;;;;;;;;;9.50;99.90;;;;;;5040083;28;19935;-80
2022/01/29 11:01:17;;;;;;;;;;;9.60;99.90;;;;;;5073962;28;20365;-82
2022/01/29 11:03:43;;;;;;;;;;;9.60;99.90;;;;;;5053608;28;19925;-82
2022/01/29 11:06:11;;;;;;;;;;;9.70;99.90;;;;;;5052220;28;19933;-84
2022/01/29 11:08:38;;;;;;;;;;;9.80;99.90;;;;;;5055752;28;19924;-81
2022/01/29 11:11:03;;;;;;;;;;;9.80;99.90;;;;;;5072861;28;20007;-82
2022/01/29 11:13:29;;;;;;;;;;;9.80;99.90;;;;;;5086217;28;20050;-83
2022/01/29 11:15:55;;;;;;;;;;;9.80;99.90;;;;;;5056214;28;20278;-84
2022/01/29 11:18:23;;;;;;;;;;;9.80;99.90;;;;;;5056213;28;19928;-84
2022/01/29 11:20:49;;;;;;;;;;;9.80;99.90;;;;;;5052371;28;20277;-83
2022/01/29 11:23:15;;;;;;;;;;;9.80;99.90;;;;;;5072458;28;19939;-84
2022/01/29 11:25:41;;;;;;;;;;;9.90;99.90;;;;;;5056352;28;19924;-83
2022/01/29 11:28:16;;;;;;;;;;;9.90;99.90;;;;;;5054324;28;20388;-82
2022/01/29 11:30:46;;;;;;;;;;;9.90;99.90;;;;;;5071439;28;19974;-80
2022/01/29 11:33:12;;;;;;;;;;;10.00;99.90;;;;;;5068889;28;19931;-85
2022/01/29 11:35:56;;;;;;;;;;;10.00;99.90;;;;;;5054974;28;19924;-84
2022/01/29 11:38:32;;;;;;;;;;;10.00;99.90;;;;;;5055356;28;19924;-82
2022/01/29 11:41:02;;;;;;;;;;;10.10;99.90;;;;;;5069947;28;19932;-82
2022/01/29 11:43:34;;;;;;;;;;;10.20;99.90;;;;;;5070420;28;19928;-83
2022/01/29 11:46:10;;;;;;;;;;;10.20;99.90;;;;;;5072181;28;19928;-81
2022/01/29 11:48:48;;;;;;;;;;;10.30;99.90;;;;;;5071920;28;19948;-78
2022/01/29 11:51:15;;;;;;;;;;;10.30;99.90;;;;;;5052451;28;20010;-85
2022/01/29 11:53:43;;;;;;;;;;;10.30;99.90;;;;;;5073190;28;19931;-80
2022/01/29 11:56:28;;;;;;;;;;;10.40;99.90;;;;;;5055416;28;19940;-77
2022/01/29 11:59:26;;;;;;;;;;;10.50;99.90;;;;;;5053279;28;20269;-77
2022/01/29 12:01:53;;;;;;;;;;;10.60;99.90;;;;;;5013485;28;19950;-80
2022/01/29 12:04:20;;;;;;;;;;;10.70;99.90;;;;;;5034813;28;19940;-82
2022/01/29 12:07:10;;;;;;;;;;;10.80;99.90;;;;;;5052386;28;19925;-79
2022/01/29 12:09:47;;;;;;;;;;;11.10;99.90;;;;;;5068803;28;19931;-82
2022/01/29 12:12:12;;;;;;;;;;;11.50;99.90;;;;;;5052172;28;19969;-80
2022/01/29 12:14:38;;;;;;;;;;;11.40;99.90;;;;;;5063679;28;20019;-82
2022/01/29 12:17:05;;;;;;;;;;;11.40;99.90;;;;;;5033238;28;19925;-78
2022/01/29 12:19:38;;;;;;;;;;;11.30;99.90;;;;;;5052419;28;20394;-77
2022/01/29 12:22:11;;;;;;;;;;;11.20;99.90;;;;;;5072533;28;20390;-82
2022/01/29 12:24:37;;;;;;;;;;;11.20;99.90;;;;;;5044663;28;19972;-78
2022/01/29 12:27:03;;;;;;;;;;;11.10;99.90;;;;;;5033369;28;19925;-79
2022/01/29 12:29:29;;;;;;;;;;;11.00;99.90;;;;;;5062747;28;19933;-84
2022/01/29 12:31:56;;;;;;;;;;;10.90;99.90;;;;;;5067157;28;20030;-79
2022/01/29 12:34:21;;;;;;;;;;;10.90;99.90;;;;;;5080738;28;19925;-80
2022/01/29 12:36:47;;;;;;;;;;;10.70;99.90;;;;;;5031820;28;19978;-81
2022/01/29 12:39:21;;;;;;;;;;;10.80;99.90;;;;;;5048394;28;19925;-81
2022/01/29 12:42:04;;;;;;;;;;;10.80;99.90;;;;;;5063643;28;20022;-81
2022/01/29 12:44:29;;;;;;;;;;;10.80;99.90;;;;;;5032094;28;19990;-81
2022/01/29 12:46:55;;;;;;;;;;;10.80;99.90;;;;;;5065711;28;20374;-80
2022/01/29 12:49:21;;;;;;;;;;;10.80;99.90;;;;;;5050778;28;19924;-81
2022/01/29 12:51:56;;;;;;;;;;;10.80;99.90;;;;;;5048128;28;19971;-76
2022/01/29 12:54:22;;;;;;;;;;;10.80;99.90;;;;;;5044847;28;19929;-79
2022/01/29 12:56:48;;;;;;;;;;;10.80;99.90;;;;;;5033695;28;20405;-81
2022/01/29 12:59:15;;;;;;;;;;;10.80;99.90;;;;;;5067696;28;19928;-86
2022/01/29 13:01:42;;;;;;;;;;;10.80;99.90;;;;;;5052146;28;19924;-87
2022/01/29 13:04:17;;;;;;;;;;;10.80;99.90;;;;;;5069494;28;20644;-79
2022/01/29 13:06:43;;;;;;;;;;;10.90;99.90;;;;;;5053194;28;19929;-82
2022/01/29 13:09:16;;;;;;;;;;;11.00;99.90;;;;;;5085090;28;19960;-79
2022/01/29 13:11:42;;;;;;;;;;;11.30;99.90;;;;;;5079413;28;20365;-81
2022/01/29 13:14:12;;;;;;;;;;;11.50;99.90;;;;;;5053064;28;20373;-82
2022/01/29 13:16:38;;;;;;;;;;;11.50;99.90;;;;;;5070465;28;20035;-78
2022/01/29 13:19:05;;;;;;;;;;;11.50;99.90;;;;;;5083174;28;19924;-79
2022/01/29 13:21:31;;;;;;;;;;;11.40;99.90;;;;;;5051049;28;19931;-79
2022/01/29 13:23:57;;;;;;;;;;;11.30;99.90;;;;;;5049487;28;20315;-77
2022/01/29 13:26:29;;;;;;;;;;;11.20;99.90;;;;;;5047072;28;20022;-78
2022/01/29 13:29:05;;;;;;;;;;;11.10;99.90;;;;;;5069211;28;20004;-80
2022/01/29 13:31:45;;;;;;;;;;;11.00;99.90;;;;;;5070861;28;19924;-80
2022/01/29 13:34:25;;;;;;;;;;;11.00;99.90;;;;;;5067096;28;19924;-80
2022/01/29 13:36:52;;;;;;;;;;;11.00;99.90;;;;;;5067701;28;20284;-82
2022/01/29 13:39:18;;;;;;;;;;;11.00;99.90;;;;;;5071610;28;19963;-80
2022/01/29 13:41:44;;;;;;;;;;;11.00;99.90;;;;;;5071377;28;19943;-80
2022/01/29 13:44:11;;;;;;;;;;;11.00;99.90;;;;;;5072734;28;19925;-78
2022/01/29 13:46:37;;;;;;;;;;;10.90;99.90;;;;;;5074625;28;19925;-80
2022/01/29 13:49:04;;;;;;;;;;;10.90;99.90;;;;;;5054628;28;19948;-80
2022/01/29 13:51:33;;;;;;;;;;;10.90;99.90;;;;;;5108423;28;19928;-80
2022/01/29 13:54:00;;;;;;;;;;;10.90;99.90;;;;;;5074997;28;20445;-79
2022/01/29 13:56:28;;;;;;;;;;;10.90;99.90;;;;;;5070809;28;20034;-78
2022/01/29 13:58:58;;;;;;;;;;;10.90;99.90;;;;;;5078540;28;20015;-77
2022/01/29 14:01:32;;;;;;;;;;;10.80;99.90;;;;;;5095470;28;19923;-78
2022/01/29 14:03:58;;;;;;;;;;;10.70;99.90;;;;;;5089375;28;19991;-81
2022/01/29 14:06:27;;;;;;;;;;;10.70;99.90;;;;;;5061289;28;19971;-79
2022/01/29 14:09:12;;;;;;;;;;;10.80;99.90;;;;;;5089593;28;20379;-76
2022/01/29 14:12:10;;;;;;;;;;;11.00;99.90;;;;;;5105601;28;19947;-78
2022/01/29 14:14:37;;;;;;;;;;;11.00;99.90;;;;;;5045016;28;20380;-76
2022/01/29 14:17:09;;;;;;;;;;;11.10;99.90;;;;;;5078514;28;19931;-77
2022/01/29 14:19:35;;;;;;;;;;;11.00;99.90;;;;;;5096057;28;19931;-78
2022/01/29 14:22:01;;;;;;;;;;;10.90;99.90;;;;;;5087622;28;19924;-76
2022/01/29 14:24:27;;;;;;;;;;;10.80;99.90;;;;;;5078146;28;19956;-77
2022/01/29 14:26:53;;;;;;;;;;;10.80;99.90;;;;;;5061310;28;20284;-77
2022/01/29 14:29:18;;;;;;;;;;;10.70;99.90;;;;;;5112093;28;20380;-78
2022/01/29 14:31:44;;;;;;;;;;;10.60;99.90;;;;;;5074264;28;19924;-79
2022/01/29 14:34:09;;;;;;;;;;;10.60;99.90;;;;;;5077876;28;19932;-77
2022/01/29 14:36:36;;;;;;;;;;;10.50;99.90;;;;;;5077423;28;20289;-81
2022/01/29 14:39:03;;;;;;;;;;;10.50;99.90;;;;;;5055409;28;19924;-79